Terminal Aerodrome Forecast
Issued by NWS

Home | Current Version | Previous Version | Text Only | Print | Product List | Glossary On
Versions: 1 2 3 4 5 6 7 8 9 10 11 12
000
FTUS46 KHNX 051741
TAFVIS
TAF
KVIS 051741Z 0518/0618 30007KT P6SM OVC050
     FM060000 28006KT P6SM -SHRA SCT030 BKN050 PROB30 0603/0609 4SM
      TSRA BKN025CB=

USA.gov is the U.S. government's official web portal to all federal, state and local government web resources and services.